Tuesday, February 20, 2018, 4:18 AM EST
Back to Local

KFIG, Clearfield-lawrence Airport

Location: Clearfield, PA, United States Lat: 41.05
Local Time: 4:18 AM EST ( 9:18 GMT) Lon: -78.417
Time Zone: US/Eastern Elev: 1515 ft

Show me the last for .
Show Decoded

2018-02-20 04:10 METAR KFIG 200910Z AUTO 00000KT 2SM BR OVC002 02/02 A3019 RMK AO2 T00170017 =
2018-02-20 03:54 METAR KFIG 200854Z AUTO 00000KT 3/4SM BR VV002 02/02 A3019 RMK AO2 SLP235
                 T00220017 55002 =
2018-02-20 03:12 METAR KFIG 200812Z AUTO 00000KT 1/2SM FG VV001 01/01 A3018 RMK AO2 T00110011 =
2018-02-20 02:54 METAR KFIG 200754Z AUTO 33003KT 1/4SM FG VV001 02/02 A3018 RMK AO2 SLP233
                 T00170017 =
2018-02-20 02:38 METAR KFIG 200738Z AUTO 00000KT 1 1/2SM BR BKN002 03/02 A3018 RMK AO2 VIS 3/4V5
                 T00280017 =
2018-02-20 02:35 METAR KFIG 200735Z AUTO 00000KT 3SM BR BKN002 02/02 A3018 RMK AO2 T00220017 =
2018-02-20 02:26 METAR KFIG 200726Z AUTO 00000KT 2SM BR BKN002 02/02 A3019 RMK AO2 VIS 1V4
                 T00170017 =
2018-02-20 01:54 METAR KFIG 200654Z AUTO 00000KT 3/4SM BR VV002 02/02 A3019 RMK AO2 SLP235
                 T00220022 =
2018-02-20 01:46 METAR KFIG 200646Z AUTO 00000KT 1/2SM FG VV002 02/02 A3019 RMK AO2 T00220017 =
2018-02-20 01:33 METAR KFIG 200633Z AUTO 01005KT 1 1/2SM BR BKN002 02/02 A3019 RMK AO2 T00170017
                 =
2018-02-20 01:22 METAR KFIG 200622Z AUTO 02003KT 1 3/4SM BR SCT002 02/02 A3019 RMK AO2 VIS 3/4V5
                 T00220022 =
2018-02-20 01:15 METAR KFIG 200615Z AUTO 03004KT 4SM BR FEW002 02/02 A3019 RMK AO2 T00220022 =
2018-02-20 01:10 METAR KFIG 200610Z AUTO 02004KT 1 1/4SM BR SCT002 02/02 A3019 RMK AO2 T00220022
                 =
2018-02-20 01:03 METAR KFIG 200603Z AUTO 36006KT 1/2SM FG VV002 02/02 A3019 RMK AO2 T00220017 =
2018-02-20 00:54 METAR KFIG 200554Z AUTO 01004KT 1 1/4SM BR BKN002 02/02 A3019 RMK AO2 SLP237
                 T00220022 10044 20017 58001 =
2018-02-20 00:51 METAR KFIG 200551Z AUTO 01004KT 1 1/4SM BR BKN002 02/02 A3019 RMK AO2 =
2018-02-20 00:05 METAR KFIG 200505Z AUTO 03003KT 3/4SM BR VV002 03/03 A3019 RMK AO2 T00280028 =
2018-02-19 23:54 METAR KFIG 200454Z AUTO 03004KT 1SM BR VV002 03/03 A3020 RMK AO2 SLP239
                 T00280028 400441039 =
2018-02-19 22:54 METAR KFIG 200354Z AUTO 36006KT 1/2SM FG VV002 03/03 A3019 RMK AO2 SLP238
                 T00330028 =
2018-02-19 22:48 METAR KFIG 200348Z AUTO 01004KT 3/4SM BR VV002 03/03 A3019 RMK AO2 =
2018-02-19 22:44 METAR KFIG 200344Z AUTO 35006KT 3/4SM BR FEW003 SCT050 03/03 A3020 RMK AO2
                 T00280028 =
2018-02-19 22:34 METAR KFIG 200334Z AUTO 36005KT 1 3/4SM BR FEW003 BKN050 03/03 A3019 RMK AO2
                 T00280028 =
2018-02-19 22:31 METAR KFIG 200331Z AUTO 36005KT 4SM BR FEW001 BKN050 03/03 A3019 RMK AO2
                 T00330033 =
2018-02-19 22:22 METAR KFIG 200322Z AUTO 00000KT 2SM BR FEW001 BKN050 03/03 A3020 RMK AO2
                 T00330028 =
2018-02-19 22:06 METAR KFIG 200306Z AUTO 36006KT 1 3/4SM BR BKN050 03/03 A3019 RMK AO2 VIS 1V5
                 T00330028 =
2018-02-19 22:01 METAR KFIG 200301Z AUTO 35005KT 3SM BR OVC050 03/03 A3019 RMK AO2 T00330033 =
2018-02-19 21:54 METAR KFIG 200254Z AUTO 35005KT 2 1/2SM BR OVC050 04/03 A3019 RMK AO2 SLP237
                 T00390033 58002 =
2018-02-19 21:32 METAR KFIG 200232Z AUTO 36006KT 1SM BR OVC055 03/03 A3019 RMK AO2 T00330028 =
2018-02-19 21:21 METAR KFIG 200221Z AUTO 36005KT 3/4SM BR OVC055 03/03 A3019 RMK AO2 T00330033 =
2018-02-19 21:11 METAR KFIG 200211Z AUTO 36004KT 1 1/2SM BR OVC055 04/03 A3020 RMK AO2 T00390033
                 =
2018-02-19 21:06 METAR KFIG 200206Z AUTO 02003KT 3SM BR OVC055 04/04 A3020 RMK AO2 T00390039 =
2018-02-19 20:54 METAR KFIG 200154Z AUTO 02003KT 1SM BR BKN050 OVC055 03/03 A3020 RMK AO2 SLP240
                 T00330033 =
2018-02-19 20:46 METAR KFIG 200146Z AUTO 01005KT 3/4SM BR FEW036 OVC050 03/03 A3020 RMK AO2
                 T00330028 =
2018-02-19 20:37 METAR KFIG 200137Z AUTO 36004KT 1SM BR OVC055 03/03 A3020 RMK AO2 T00330033 =
2018-02-19 20:08 METAR KFIG 200108Z AUTO 36006KT 3/4SM BR FEW002 BKN046 BKN055 03/03 A3020 RMK
                 AO2 T00330033 =
2018-02-19 19:54 METAR KFIG 200054Z AUTO 01005KT 1 3/4SM BR FEW002 OVC047 04/03 A3020 RMK AO2 VIS
                 3/4V5 SLP239 T00390033 =
2018-02-19 19:50 METAR KFIG 200050Z AUTO 01006KT 1SM BR SCT002 BKN047 OVC055 03/03 A3020 RMK AO2
                 =
2018-02-19 19:37 METAR KFIG 200037Z AUTO 36007KT 1/2SM FG BKN001 BKN045 03/03 A3020 RMK AO2
                 T00280028 =
2018-02-19 19:24 METAR KFIG 200024Z AUTO 36006KT 1/4SM FG SCT001 BKN042 03/02 A3020 RMK AO2
                 T00280022 =
2018-02-19 19:15 METAR KFIG 200015Z AUTO 07005KT 1 3/4SM BR FEW001 OVC040 04/03 A3019 RMK AO2
                 T00390033 =
2018-02-19 19:02 METAR KFIG 200002Z AUTO 02005KT 1SM BR OVC040 03/03 A3021 RMK AO2 T00330033 =
2018-02-19 18:54 METAR KFIG 192354Z AUTO 02005KT 1/4SM FG OVC038 03/03 A3021 RMK AO2 RAE01 SLP244
                 P0000 60039 T00280028 10044 20022 50005 =
2018-02-19 18:51 METAR KFIG 192351Z AUTO 36005KT 1/4SM FG OVC038 03/02 A3021 RMK AO2 RAE01 P0000
                 =
2018-02-19 18:44 METAR KFIG 192344Z AUTO 36006KT 1/2SM FG BKN038 OVC046 03/03 A3020 RMK AO2 RAE01
                 P0000 T00280028 =
2018-02-19 18:36 METAR KFIG 192336Z AUTO 03005KT 1SM BR FEW006 BKN038 OVC045 03/03 A3020 RMK AO2
                 VIS 3/4V4 RAE01 P0000 T00330033 =
2018-02-19 18:23 METAR KFIG 192323Z AUTO 05005KT 2 1/2SM BR FEW006 OVC036 04/03 A3020 RMK AO2
                 RAE01 P0000 T00390033 =
2018-02-19 18:19 METAR KFIG 192319Z AUTO 05004KT 3/4SM BR FEW006 OVC034 04/03 A3020 RMK AO2 RAE01
                 P0000 T00390033 =
2018-02-19 18:10 METAR KFIG 192310Z AUTO 03005KT 1 1/2SM BR FEW006 OVC034 04/03 A3021 RMK AO2
                 RAE01 P0000 T00390033 =
2018-02-19 17:54 METAR KFIG 192254Z AUTO 06004KT 10SM -RA FEW007 OVC033 04/04 A3021 RMK AO2
                 SLP243 P0002 T00390039 =
2018-02-19 17:44 METAR KFIG 192244Z AUTO 05004KT 7SM -RA SCT007 OVC033 04/03 A3021 RMK AO2 P0002
                 T00390033 =
2018-02-19 17:29 METAR KFIG 192229Z AUTO 03004KT 3SM -RA BR BKN006 OVC033 04/03 A3020 RMK AO2
                 P0002 T00390033 =
2018-02-19 17:17 METAR KFIG 192217Z AUTO 04004KT 1 1/2SM -RA BR BKN006 OVC035 03/03 A3020 RMK AO2
                 P0002 T00330033 =
2018-02-19 17:02 METAR KFIG 192202Z AUTO 04004KT 6SM -RA BR BKN005 OVC035 04/03 A3019 RMK AO2 CIG
                 004V008 P0001 T00390033 =
2018-02-19 16:54 METAR KFIG 192154Z AUTO 04004KT 2SM -RA BR BKN005 BKN027 OVC037 03/03 A3019 RMK
                 AO2 RAE01B18 CIG 004V008 SLP238 P0000 T00330033 =
2018-02-19 16:44 METAR KFIG 192144Z AUTO 02004KT 1 3/4SM -RA BR BKN005 OVC027 03/03 A3019 RMK AO2
                 RAE01B18 P0000 T00330033 =
2018-02-19 16:23 METAR KFIG 192123Z AUTO 36003KT 3SM -RA BR BKN006 BKN015 OVC027 03/03 A3019 RMK
                 AO2 RAE01B18 P0000 T00330028 =
2018-02-19 16:11 METAR KFIG 192111Z AUTO 35005KT 1 1/2SM BR BKN007 OVC016 03/03 A3019 RMK AO2
                 RAE01 P0000 T00330028 =
2018-02-19 16:00 METAR KFIG 192100Z AUTO 35006KT 3SM -RA BR BKN007 OVC016 03/03 A3019 RMK AO2
                 P0000 T00330028 =
2018-02-19 15:54 METAR KFIG 192054Z AUTO 34005KT 1 1/4SM -RA BR BKN007 OVC014 03/03 A3019 RMK AO2
                 SLP236 P0002 60037 T00330028 56011 =
2018-02-19 15:46 METAR KFIG 192046Z AUTO 35006KT 1SM -RA BR BKN006 OVC013 03/03 A3018 RMK AO2
                 P0002 T00330028 =
2018-02-19 15:15 METAR KFIG 192015Z AUTO 01004KT 1/4SM -RA FG VV007 03/03 A3018 RMK AO2 P0002
                 T00280028 =
2018-02-19 15:01 METAR KFIG 192001Z AUTO 02004KT 3/4SM -RA BR VV007 03/03 A3018 RMK AO2 P0001
                 T00330028 =
2018-02-19 14:54 METAR KFIG 191954Z AUTO 04004KT 1/4SM -RA FG VV007 03/03 A3019 RMK AO2 SLP237
                 P0022 T00330028 =
2018-02-19 14:42 METAR KFIG 191942Z AUTO 02003KT 1/4SM -RA FG VV007 03/03 A3020 RMK AO2 P0021
                 T00280028 =
2018-02-19 14:35 METAR KFIG 191935Z AUTO 04003KT 1/2SM RA FG VV007 03/03 A3019 RMK AO2 P0020
                 T00280028 =
2018-02-19 13:54 METAR KFIG 191854Z AUTO 36003KT 1/4SM +RA FG VV008 03/03 A3020 RMK AO2 SLP245
                 P0013 T00280028 =
2018-02-19 13:34 METAR KFIG 191834Z AUTO VRB03KT 1/4SM -RA FG OVC007 03/03 A3020 RMK AO2 P0007
                 T00280028 =
2018-02-19 13:24 METAR KFIG 191824Z AUTO 35003KT 1/2SM -RA FG OVC006 03/03 A3021 RMK AO2 P0007
                 T00280028 =
2018-02-19 12:54 METAR KFIG 191754Z AUTO 02003KT 1/4SM -RA FG OVC008 03/02 A3022 RMK AO2 SLP250
                 P0018 60029 T00280022 10028 21011 58007 =
2018-02-19 12:46 METAR KFIG 191746Z AUTO 02004KT 1/2SM RA FG OVC008 03/02 A3022 RMK AO2 P0016
                 T00280022 =
2018-02-19 12:37 METAR KFIG 191737Z AUTO 03003KT 1 1/2SM RA BR OVC008 03/03 A3023 RMK AO2 P0014
                 T00280028 =
2018-02-19 12:27 METAR KFIG 191727Z AUTO 00000KT 1/2SM -RA FG BKN008 BKN015 OVC060 03/03 A3023
                 RMK AO2 P0012 T00280028 =
2018-02-19 12:20 METAR KFIG 191720Z AUTO 00000KT 1/4SM -RA FG SCT008 BKN015 OVC029 03/03 A3024
                 RMK AO2 P0012 T00280028 =
2018-02-19 12:10 METAR KFIG 191710Z AUTO 00000KT 3/4SM RA BR SCT008 BKN020 OVC060 03/03 A3024 RMK
                 AO2 P0009 T00280028 =
2018-02-19 11:51 METAR KFIG 191651Z AUTO 36004KT 1 3/4SM +RA BR OVC007 02/02 A3025 RMK AO2
                 UPE1555RAB1555 SLP261 P0009 T00220017 =
2018-02-19 11:50 METAR KFIG 191650Z AUTO 35004KT 1 3/4SM +RA BR OVC007 02/02 A3026 RMK AO2
                 UPE1555RAB1555 P0008 =
2018-02-19 11:42 METAR KFIG 191642Z AUTO 35005KT 3SM RA BR OVC007 02/02 A3026 RMK AO2
                 UPE1555RAB1555 P0003 T00220017 =
2018-02-19 11:35 METAR KFIG 191635Z AUTO 01005KT 2 1/2SM -RA BR OVC007 02/02 A3024 RMK AO2
                 UPE1555RAB1555 P0002 T00220017 =
2018-02-19 11:12 METAR KFIG 191612Z AUTO 01004KT 3/4SM -RA BR OVC007 02/02 A3024 RMK AO2
                 UPE1555RAB1555 P0002 T00220017 =
2018-02-19 10:54 METAR KFIG 191554Z AUTO 01003KT 1/4SM UP FG OVC006 02/02 A3024 RMK AO2
                 RAE10UPB10E13B53 SLP257 P0000 T00170017 =
2018-02-19 10:46 METAR KFIG 191546Z AUTO 01004KT 1/4SM FG OVC005 02/02 A3025 RMK AO2
                 RAE10UPB10E13 P0000 T00170017 =
2018-02-19 10:40 METAR KFIG 191540Z AUTO 04004KT 1 3/4SM BR OVC005 02/02 A3025 RMK AO2
                 RAE10UPB10E13 P0000 T00220017 =
2018-02-19 10:22 METAR KFIG 191522Z AUTO 06003KT 1 1/4SM BR OVC004 02/02 A3026 RMK AO2
                 RAE10UPB10E13 P0000 T00220017 =
2018-02-19 09:54 METAR KFIG 191454Z AUTO 06004KT 1SM -RA BR OVC005 02/01 A3028 RMK AO2
                 UPB1359E08B19E41RAB41 CIG 003V008 SLP270 P0002 60002 T00170011 50005 =
2018-02-19 09:26 METAR KFIG 191426Z AUTO 05003KT 1 1/4SM UP BR OVC007 02/01 A3028 RMK AO2
                 UPB1359E08B19 CIG 004V010 P0001 T00170006 =
2018-02-19 09:14 METAR KFIG 191414Z AUTO 06004KT 2SM BR OVC009 01/01 A3028 RMK AO2 UPB1359E08 CIG
                 008V012 P0001 T00110006 =
2018-02-19 09:02 METAR KFIG 191402Z AUTO 06004KT 1 3/4SM UP BR OVC011 01/00 A3028 RMK AO2 UPB1359
                 CIG 008V013 P0000 T00110000 =
2018-02-19 08:54 METAR KFIG 191354Z AUTO 06004KT 3SM BR OVC013 01/M01 A3028 RMK AO2 RAB31E47
                 SLP272 P0000 T00111006 =
2018-02-19 08:45 METAR KFIG 191345Z AUTO 07003KT 4SM -RA BR OVC013 01/M01 A3029 RMK AO2 RAB31
                 P0000 T00061011 =
2018-02-19 07:54 METAR KFIG 191254Z AUTO 00000KT 10SM OVC028 01/M01 A3027 RMK AO2 SLP266
                 T00111011 =
2018-02-19 06:54 METAR KFIG 191154Z AUTO 04003KT 10SM BKN049 BKN095 M01/M02 A3026 RMK AO2 SLP265
                 T10061022 10000 21039 56003 =
2018-02-19 05:54 METAR KFIG 191054Z AUTO 04004KT 10SM BKN050 OVC100 M01/M03 A3027 RMK AO2 SLP267
                 T10111033 =
2018-02-19 04:54 METAR KFIG 190954Z AUTO 03004KT 10SM CLR M02/M04 A3027 RMK AO2 SLP266 T10171039
                 =

Support USWX by starting your Amazon purchase here.